Time;durP1;ratioP1;P1;durP2;ratioP2;P2;SDS_P1;SDS_P2;PMS_P1;PMS_P2;Temp;Humidity;BMP_temperature;BMP_pressure;BME280_temperature;BME280_humidity;BME280_pressure;Samples;Min_cycle;Max_cycle;Signal;HPM_P1;HPM_P2
2022/07/19 00:00:47;;;;;;;;;;;21.60;99.90;;;;;;4589541;19;19938;-35
2022/07/19 00:02:18;;;;;;;;;;;21.60;99.90;;;;;;4589720;19;19915;-34
2022/07/19 00:03:49;;;;;;;;;;;21.60;99.90;;;;;;4590423;19;19914;-34
2022/07/19 00:05:20;;;;;;;;;;;21.60;99.90;;;;;;4590880;19;19922;-32
2022/07/19 00:06:51;;;;;;;;;;;21.60;99.90;;;;;;4590036;19;20325;-34
2022/07/19 00:08:22;;;;;;;;;;;21.60;99.90;;;;;;4589931;19;19978;-33
2022/07/19 00:09:53;;;;;;;;;;;21.60;99.90;;;;;;4590204;19;19925;-33
2022/07/19 00:11:24;;;;;;;;;;;21.60;99.90;;;;;;4590893;19;19915;-34
2022/07/19 00:12:55;;;;;;;;;;;21.60;99.90;;;;;;4590056;19;19932;-33
2022/07/19 00:14:26;;;;;;;;;;;21.60;99.90;;;;;;4590261;19;19923;-33
2022/07/19 00:15:57;;;;;;;;;;;21.60;99.90;;;;;;4590051;19;19922;-34
2022/07/19 00:17:28;;;;;;;;;;;21.50;99.90;;;;;;4590342;19;19911;-33
2022/07/19 00:18:59;;;;;;;;;;;21.50;99.90;;;;;;4588750;19;19915;-33
2022/07/19 00:20:30;;;;;;;;;;;21.50;99.90;;;;;;4590465;19;20265;-34
2022/07/19 00:22:01;;;;;;;;;;;21.50;99.90;;;;;;4590146;19;19922;-33
2022/07/19 00:23:32;;;;;;;;;;;21.50;99.90;;;;;;4590157;19;19923;-34
2022/07/19 00:25:03;;;;;;;;;;;21.50;99.90;;;;;;4589823;19;19934;-34
2022/07/19 00:26:34;;;;;;;;;;;21.50;99.90;;;;;;4594839;19;19926;-34
2022/07/19 00:28:05;;;;;;;;;;;21.50;99.90;;;;;;4595081;19;19918;-33
2022/07/19 00:29:36;;;;;;;;;;;21.50;99.90;;;;;;4594344;19;20342;-33
2022/07/19 00:31:07;;;;;;;;;;;21.50;99.90;;;;;;4594308;19;19919;-35
2022/07/19 00:32:38;;;;;;;;;;;21.40;99.90;;;;;;4594295;19;19922;-35
2022/07/19 00:34:09;;;;;;;;;;;21.50;99.90;;;;;;4595014;19;19918;-33
2022/07/19 00:35:40;;;;;;;;;;;21.50;99.90;;;;;;4594265;19;19930;-35
2022/07/19 00:37:11;;;;;;;;;;;21.50;99.90;;;;;;4594227;19;19915;-33
2022/07/19 00:38:42;;;;;;;;;;;21.50;99.90;;;;;;4593397;19;19911;-33
2022/07/19 00:40:13;;;;;;;;;;;21.50;99.90;;;;;;4594500;19;19921;-33
2022/07/19 00:41:44;;;;;;;;;;;21.50;99.90;;;;;;4594225;19;19918;-34
2022/07/19 00:43:15;;;;;;;;;;;21.50;99.90;;;;;;4594515;19;19926;-34
2022/07/19 00:44:46;;;;;;;;;;;21.50;99.90;;;;;;4594741;19;19918;-34
2022/07/19 00:46:20;;;;;;;;;;;21.50;99.90;;;;;;4594065;19;19919;-32
2022/07/19 00:47:51;;;;;;;;;;;21.50;99.90;;;;;;4594025;19;19918;-33
2022/07/19 00:49:23;;;;;;;;;;;21.40;99.90;;;;;;4593448;19;20281;-32
2022/07/19 00:50:55;;;;;;;;;;;21.40;99.90;;;;;;4594042;19;19952;-34
2022/07/19 00:52:26;;;;;;;;;;;21.40;99.90;;;;;;4593869;19;20266;-36
2022/07/19 00:53:56;;;;;;;;;;;21.40;99.90;;;;;;4592789;19;19929;-35
2022/07/19 00:55:28;;;;;;;;;;;21.40;99.90;;;;;;4593018;19;19915;-33
2022/07/19 00:56:59;;;;;;;;;;;21.40;99.90;;;;;;4592651;19;19921;-33
2022/07/19 00:58:31;;;;;;;;;;;21.40;99.90;;;;;;4591657;19;20249;-33
2022/07/19 01:00:02;;;;;;;;;;;21.40;99.90;;;;;;4593170;19;19915;-34
2022/07/19 01:01:33;;;;;;;;;;;21.40;99.90;;;;;;4593873;19;19938;-33
2022/07/19 01:03:05;;;;;;;;;;;21.40;99.90;;;;;;4592649;19;19918;-34
2022/07/19 01:04:35;;;;;;;;;;;21.40;99.90;;;;;;4592790;19;19942;-34
2022/07/19 01:06:07;;;;;;;;;;;21.40;99.90;;;;;;4593194;19;19919;-35
2022/07/19 01:07:41;;;;;;;;;;;21.40;99.90;;;;;;4593898;19;20261;-35
2022/07/19 01:09:12;;;;;;;;;;;21.40;99.90;;;;;;4592332;19;20341;-33
2022/07/19 01:10:43;;;;;;;;;;;21.40;99.90;;;;;;4593246;19;19914;-34
2022/07/19 01:12:14;;;;;;;;;;;21.40;99.90;;;;;;4592802;19;19922;-34
2022/07/19 01:13:45;;;;;;;;;;;21.40;99.90;;;;;;4592434;19;19922;-33
2022/07/19 01:15:20;;;;;;;;;;;21.40;99.90;;;;;;4592123;19;20316;-34
2022/07/19 01:16:51;;;;;;;;;;;21.30;99.90;;;;;;4592626;19;19962;-33
2022/07/19 01:18:21;;;;;;;;;;;21.40;99.90;;;;;;4592658;19;19918;-32
2022/07/19 01:19:52;;;;;;;;;;;21.40;99.90;;;;;;4593969;19;19926;-33
2022/07/19 01:21:24;;;;;;;;;;;21.40;99.90;;;;;;4593146;19;20282;-34
2022/07/19 01:22:55;;;;;;;;;;;21.40;99.90;;;;;;4593736;19;19986;-34
2022/07/19 01:24:26;;;;;;;;;;;21.40;99.90;;;;;;4593970;19;19922;-33
2022/07/19 01:25:57;;;;;;;;;;;21.30;99.90;;;;;;4593056;19;19919;-34
2022/07/19 01:27:28;;;;;;;;;;;21.30;99.90;;;;;;4593359;19;19944;-34
2022/07/19 01:28:59;;;;;;;;;;;21.40;99.90;;;;;;4593524;19;19915;-32
2022/07/19 01:30:30;;;;;;;;;;;21.40;99.90;;;;;;4593902;19;19911;-33
2022/07/19 01:32:01;;;;;;;;;;;21.30;99.90;;;;;;4593104;19;19919;-33
2022/07/19 01:33:37;;;;;;;;;;;21.30;99.90;;;;;;4593030;19;20273;-34
2022/07/19 01:35:08;;;;;;;;;;;21.30;99.90;;;;;;4592162;19;20019;-35
2022/07/19 01:36:39;;;;;;;;;;;21.30;99.90;;;;;;4592488;19;20363;-34
2022/07/19 01:38:10;;;;;;;;;;;21.30;99.90;;;;;;4592603;19;19918;-34
2022/07/19 01:39:41;;;;;;;;;;;21.30;99.90;;;;;;4593051;19;19925;-33
2022/07/19 01:41:12;;;;;;;;;;;21.30;99.90;;;;;;4593534;19;20265;-34
2022/07/19 01:42:43;;;;;;;;;;;21.30;99.90;;;;;;4592931;19;19919;-35
2022/07/19 01:44:14;;;;;;;;;;;21.30;99.90;;;;;;4593115;19;19923;-33
2022/07/19 01:45:45;;;;;;;;;;;21.30;99.90;;;;;;4593012;19;19932;-33
2022/07/19 01:47:16;;;;;;;;;;;21.30;99.90;;;;;;4592187;19;19919;-32
2022/07/19 01:48:47;;;;;;;;;;;21.30;99.90;;;;;;4592264;19;19925;-34
2022/07/19 01:50:18;;;;;;;;;;;21.30;99.90;;;;;;4593023;19;19915;-34
2022/07/19 01:51:49;;;;;;;;;;;21.30;99.90;;;;;;4593168;19;19915;-34
2022/07/19 01:53:20;;;;;;;;;;;21.30;99.90;;;;;;4593403;19;19918;-34
2022/07/19 01:54:54;;;;;;;;;;;21.30;99.90;;;;;;4592536;19;19915;-33
2022/07/19 01:56:25;;;;;;;;;;;21.30;99.90;;;;;;4590333;19;19995;-34
2022/07/19 01:58:00;;;;;;;;;;;21.30;99.90;;;;;;4591895;19;20248;-33
2022/07/19 01:59:31;;;;;;;;;;;21.20;99.90;;;;;;4593243;19;19915;-33
2022/07/19 02:01:01;;;;;;;;;;;21.30;99.90;;;;;;4592587;19;19971;-33
2022/07/19 02:02:32;;;;;;;;;;;21.30;99.90;;;;;;4592510;19;19994;-34
2022/07/19 02:04:04;;;;;;;;;;;21.30;99.90;;;;;;4593368;19;19945;-33
2022/07/19 02:05:35;;;;;;;;;;;21.20;99.90;;;;;;4592298;19;20329;-32
2022/07/19 02:07:06;;;;;;;;;;;21.30;99.90;;;;;;4592610;19;19932;-33
2022/07/19 02:08:38;;;;;;;;;;;21.20;99.90;;;;;;4592445;19;20341;-33
2022/07/19 02:10:10;;;;;;;;;;;21.20;99.90;;;;;;4593239;19;19923;-32
2022/07/19 02:11:41;;;;;;;;;;;21.20;99.90;;;;;;4591986;19;19939;-33
2022/07/19 02:13:12;;;;;;;;;;;21.30;99.90;;;;;;4592342;19;20273;-35
2022/07/19 02:14:43;;;;;;;;;;;21.20;99.90;;;;;;4591098;19;19918;-33
2022/07/19 02:16:15;;;;;;;;;;;21.20;99.90;;;;;;4591892;19;19922;-35
2022/07/19 02:17:46;;;;;;;;;;;21.20;99.90;;;;;;4592031;19;20293;-33
2022/07/19 02:19:17;;;;;;;;;;;21.20;99.90;;;;;;4591852;19;19918;-35
2022/07/19 02:20:48;;;;;;;;;;;21.20;99.90;;;;;;4592249;19;19919;-33
2022/07/19 02:22:22;;;;;;;;;;;21.20;99.90;;;;;;4591966;19;20253;-33
2022/07/19 02:23:54;;;;;;;;;;;21.20;99.90;;;;;;4592024;19;19910;-33
2022/07/19 02:25:24;;;;;;;;;;;21.20;99.90;;;;;;4592003;19;20261;-35
2022/07/19 02:26:55;;;;;;;;;;;21.20;99.90;;;;;;4592631;19;19922;-32
2022/07/19 02:28:27;;;;;;;;;;;21.20;99.90;;;;;;4590582;19;19974;-33
2022/07/19 02:29:57;;;;;;;;;;;21.20;99.90;;;;;;4591388;19;20321;-34
2022/07/19 02:31:28;;;;;;;;;;;21.20;99.90;;;;;;4591965;19;20019;-33
2022/07/19 02:32:59;;;;;;;;;;;21.20;99.90;;;;;;4592179;19;19922;-33
2022/07/19 02:34:30;;;;;;;;;;;21.20;99.90;;;;;;4591733;19;19919;-33
2022/07/19 02:36:03;;;;;;;;;;;21.20;99.90;;;;;;4590835;19;19925;-34
2022/07/19 02:37:34;;;;;;;;;;;21.20;99.90;;;;;;4590957;19;19921;-33
2022/07/19 02:39:05;;;;;;;;;;;21.20;99.90;;;;;;4591129;19;19930;-34
2022/07/19 02:40:36;;;;;;;;;;;21.20;99.90;;;;;;4591774;19;19923;-33
2022/07/19 02:42:07;;;;;;;;;;;21.10;99.90;;;;;;4591972;19;19915;-33
2022/07/19 02:43:38;;;;;;;;;;;21.10;99.90;;;;;;4592539;19;19906;-33
2022/07/19 02:45:09;;;;;;;;;;;21.10;99.90;;;;;;4591366;19;19922;-34
2022/07/19 02:46:40;;;;;;;;;;;21.10;99.90;;;;;;4591940;19;19918;-33
2022/07/19 02:48:11;;;;;;;;;;;21.10;99.90;;;;;;4590477;19;19982;-34
2022/07/19 02:49:42;;;;;;;;;;;21.10;99.90;;;;;;4592133;19;20333;-33
2022/07/19 02:51:13;;;;;;;;;;;21.10;99.90;;;;;;4591525;19;19911;-33
2022/07/19 02:52:44;;;;;;;;;;;21.10;99.90;;;;;;4591869;19;19914;-35
2022/07/19 02:54:15;;;;;;;;;;;21.10;99.90;;;;;;4590368;19;19942;-33
2022/07/19 02:55:46;;;;;;;;;;;21.10;99.90;;;;;;4590470;19;20301;-34
2022/07/19 02:57:17;;;;;;;;;;;21.10;99.90;;;;;;4591287;19;19935;-33
2022/07/19 02:58:48;;;;;;;;;;;21.10;99.90;;;;;;4591037;19;19926;-33
2022/07/19 03:00:19;;;;;;;;;;;21.10;99.90;;;;;;4592010;19;19915;-35
2022/07/19 03:01:50;;;;;;;;;;;21.10;99.90;;;;;;4591555;19;20323;-35
2022/07/19 03:05:11;;;;;;;;;;;21.10;99.90;;;;;;4591428;19;20317;-34
2022/07/19 03:06:41;;;;;;;;;;;21.10;99.90;;;;;;4591552;19;19914;-33
2022/07/19 03:08:12;;;;;;;;;;;21.10;99.90;;;;;;4591586;19;20328;-32
2022/07/19 03:09:43;;;;;;;;;;;21.10;99.90;;;;;;4591156;19;19926;-33
2022/07/19 03:11:14;;;;;;;;;;;21.10;99.90;;;;;;4591161;19;19925;-33
2022/07/19 03:12:45;;;;;;;;;;;21.10;99.90;;;;;;4591788;19;20230;-34
2022/07/19 03:14:16;;;;;;;;;;;21.10;99.90;;;;;;4590790;19;19917;-34
2022/07/19 03:15:48;;;;;;;;;;;21.10;99.90;;;;;;4591251;19;19938;-33
2022/07/19 03:17:19;;;;;;;;;;;21.10;99.90;;;;;;4591582;19;19915;-33
2022/07/19 03:18:50;;;;;;;;;;;21.10;99.90;;;;;;4591145;19;19927;-33
2022/07/19 03:20:21;;;;;;;;;;;21.10;99.90;;;;;;4589697;19;19919;-33
2022/07/19 03:21:52;;;;;;;;;;;21.10;99.90;;;;;;4589994;19;19914;-35
2022/07/19 03:23:27;;;;;;;;;;;21.10;99.90;;;;;;4591117;19;19941;-33
2022/07/19 03:24:58;;;;;;;;;;;21.10;99.90;;;;;;4591341;19;19984;-33
2022/07/19 03:26:29;;;;;;;;;;;21.10;99.90;;;;;;4590697;19;20322;-33
2022/07/19 03:28:00;;;;;;;;;;;21.10;99.90;;;;;;4589977;19;19930;-33
2022/07/19 03:29:31;;;;;;;;;;;21.10;99.90;;;;;;4590922;19;19918;-34
2022/07/19 03:31:02;;;;;;;;;;;21.10;99.90;;;;;;4590675;19;19921;-33
2022/07/19 03:32:33;;;;;;;;;;;21.10;99.90;;;;;;4589687;19;19922;-33
2022/07/19 03:34:04;;;;;;;;;;;21.10;99.90;;;;;;4590796;19;19939;-34
2022/07/19 03:35:35;;;;;;;;;;;21.10;99.90;;;;;;4592804;19;19907;-34
2022/07/19 03:37:06;;;;;;;;;;;21.10;99.90;;;;;;4590765;19;19914;-33
2022/07/19 03:38:37;;;;;;;;;;;20.90;99.90;;;;;;4590334;19;19915;-34
2022/07/19 03:40:08;;;;;;;;;;;20.60;99.90;;;;;;4590624;19;19914;-35
2022/07/19 03:41:39;;;;;;;;;;;20.40;99.90;;;;;;4591001;19;19960;-34
2022/07/19 03:43:10;;;;;;;;;;;20.30;99.90;;;;;;4590437;19;19915;-33
2022/07/19 03:44:41;;;;;;;;;;;20.20;99.90;;;;;;4590869;19;19948;-33
2022/07/19 03:46:12;;;;;;;;;;;20.00;99.90;;;;;;4592231;19;19919;-35
2022/07/19 03:47:43;;;;;;;;;;;20.00;99.90;;;;;;4591858;19;20357;-33
2022/07/19 03:49:14;;;;;;;;;;;20.00;99.90;;;;;;4590620;19;19918;-33
2022/07/19 03:50:45;;;;;;;;;;;20.00;99.90;;;;;;4590238;19;19915;-32
2022/07/19 03:52:16;;;;;;;;;;;20.00;99.90;;;;;;4591074;19;19915;-34
2022/07/19 03:53:47;;;;;;;;;;;20.00;99.90;;;;;;4591887;19;19948;-34
2022/07/19 03:55:18;;;;;;;;;;;20.00;99.90;;;;;;4590494;19;20254;-34
2022/07/19 03:56:49;;;;;;;;;;;20.00;99.90;;;;;;4589100;19;19941;-35
2022/07/19 03:58:20;;;;;;;;;;;20.00;99.90;;;;;;4590766;19;20309;-32
2022/07/19 03:59:51;;;;;;;;;;;20.00;99.90;;;;;;4591468;19;19922;-33
2022/07/19 04:01:22;;;;;;;;;;;20.00;99.90;;;;;;4594432;19;19930;-34
2022/07/19 04:02:53;;;;;;;;;;;19.90;99.90;;;;;;4594760;19;19921;-33
2022/07/19 04:04:24;;;;;;;;;;;19.90;99.90;;;;;;4595568;19;19915;-35
2022/07/19 04:05:56;;;;;;;;;;;19.90;99.90;;;;;;4594911;19;19919;-33
2022/07/19 04:07:27;;;;;;;;;;;19.90;99.90;;;;;;4595362;19;19934;-32
2022/07/19 04:08:57;;;;;;;;;;;20.00;99.90;;;;;;4595101;19;19918;-33
2022/07/19 04:10:28;;;;;;;;;;;20.10;99.90;;;;;;4594396;19;19907;-34
2022/07/19 04:12:00;;;;;;;;;;;20.10;99.90;;;;;;4594769;19;20345;-33
2022/07/19 04:13:34;;;;;;;;;;;20.20;99.90;;;;;;4595153;19;19925;-33
2022/07/19 04:15:06;;;;;;;;;;;20.20;99.90;;;;;;4596140;19;19922;-33
2022/07/19 04:16:37;;;;;;;;;;;20.40;99.90;;;;;;4594645;19;19911;-33
2022/07/19 04:18:08;;;;;;;;;;;20.60;99.90;;;;;;4594311;19;19997;-34
2022/07/19 04:19:39;;;;;;;;;;;20.80;99.90;;;;;;4594625;19;20372;-34
2022/07/19 04:21:10;;;;;;;;;;;20.90;99.90;;;;;;4597218;19;19917;-31
2022/07/19 04:22:40;;;;;;;;;;;21.10;99.90;;;;;;4596123;19;19963;-33
2022/07/19 04:24:12;;;;;;;;;;;21.10;99.90;;;;;;4594598;19;20250;-34
2022/07/19 04:25:43;;;;;;;;;;;21.30;99.90;;;;;;4596771;19;19921;-34
2022/07/19 04:27:13;;;;;;;;;;;21.30;99.90;;;;;;4594174;19;19922;-35
2022/07/19 04:28:44;;;;;;;;;;;21.40;99.90;;;;;;4594656;19;19911;-33
2022/07/19 04:30:16;;;;;;;;;;;21.40;99.90;;;;;;4594562;19;20399;-32
2022/07/19 04:31:46;;;;;;;;;;;21.50;99.90;;;;;;4595056;19;19990;-33
2022/07/19 04:33:17;;;;;;;;;;;21.50;99.90;;;;;;4594240;19;19919;-35
2022/07/19 04:34:49;;;;;;;;;;;21.50;99.90;;;;;;4594444;19;19927;-34
2022/07/19 04:36:20;;;;;;;;;;;21.00;99.90;;;;;;4594370;19;19926;-33
2022/07/19 04:37:51;;;;;;;;;;;20.70;99.90;;;;;;4594586;19;19915;-33
2022/07/19 04:39:22;;;;;;;;;;;20.40;99.90;;;;;;4592562;19;19915;-34
2022/07/19 04:40:52;;;;;;;;;;;20.30;99.90;;;;;;4594182;19;19907;-32
2022/07/19 04:42:24;;;;;;;;;;;20.10;99.90;;;;;;4594820;19;19942;-34
2022/07/19 04:43:55;;;;;;;;;;;20.00;99.90;;;;;;4594048;19;19947;-34
2022/07/19 04:45:27;;;;;;;;;;;19.90;99.90;;;;;;4592955;19;19923;-34
2022/07/19 04:46:58;;;;;;;;;;;19.90;99.90;;;;;;4593510;19;19919;-33
2022/07/19 04:48:29;;;;;;;;;;;19.80;99.90;;;;;;4593813;19;19911;-33
2022/07/19 04:50:00;;;;;;;;;;;19.80;99.90;;;;;;4593918;19;19921;-33
2022/07/19 04:51:31;;;;;;;;;;;19.70;99.90;;;;;;4594022;19;19929;-33
2022/07/19 04:53:02;;;;;;;;;;;19.70;99.90;;;;;;4594692;19;20309;-34
2022/07/19 04:54:33;;;;;;;;;;;19.70;99.90;;;;;;4592941;19;20112;-33
2022/07/19 04:56:07;;;;;;;;;;;19.60;99.90;;;;;;4592184;19;19991;-33
2022/07/19 04:57:38;;;;;;;;;;;19.60;99.90;;;;;;4593909;19;19915;-33
2022/07/19 04:59:09;;;;;;;;;;;19.60;99.90;;;;;;4593326;19;19932;-33
2022/07/19 05:00:40;;;;;;;;;;;19.60;99.90;;;;;;4593820;19;19910;-33
2022/07/19 05:02:11;;;;;;;;;;;19.60;99.90;;;;;;4593687;19;19952;-32
2022/07/19 05:03:42;;;;;;;;;;;19.60;99.90;;;;;;4594427;19;19935;-33
2022/07/19 05:05:14;;;;;;;;;;;19.60;99.90;;;;;;4594350;19;19922;-34
2022/07/19 05:06:45;;;;;;;;;;;19.60;99.90;;;;;;4593665;19;19929;-32
2022/07/19 05:08:17;;;;;;;;;;;19.60;99.90;;;;;;4591124;19;19914;-33
2022/07/19 05:09:48;;;;;;;;;;;19.60;99.90;;;;;;4592555;19;19934;-36
2022/07/19 05:11:19;;;;;;;;;;;19.70;99.90;;;;;;4592747;19;19943;-35
2022/07/19 05:12:50;;;;;;;;;;;19.70;99.90;;;;;;4592442;19;19919;-34
2022/07/19 05:14:21;;;;;;;;;;;19.70;99.90;;;;;;4593128;19;19918;-33
2022/07/19 05:15:52;;;;;;;;;;;19.80;99.90;;;;;;4593808;19;19911;-33
2022/07/19 05:17:23;;;;;;;;;;;19.80;99.90;;;;;;4592490;19;20287;-32
2022/07/19 05:18:54;;;;;;;;;;;19.80;99.90;;;;;;4591682;19;19974;-32
2022/07/19 05:20:25;;;;;;;;;;;19.80;99.90;;;;;;4593780;19;19920;-32
2022/07/19 05:21:56;;;;;;;;;;;19.90;99.90;;;;;;4594162;19;20313;-33
2022/07/19 05:23:27;;;;;;;;;;;19.90;99.90;;;;;;4593124;19;19938;-32
2022/07/19 05:24:58;;;;;;;;;;;20.10;99.90;;;;;;4593502;19;19927;-33
2022/07/19 05:26:30;;;;;;;;;;;20.40;99.90;;;;;;4592240;19;19907;-33
2022/07/19 05:28:01;;;;;;;;;;;20.60;99.90;;;;;;4592523;19;19946;-34
2022/07/19 05:29:32;;;;;;;;;;;20.90;99.90;;;;;;4593267;19;19966;-34
2022/07/19 05:31:04;;;;;;;;;;;21.00;99.90;;;;;;4590080;19;19978;-34
2022/07/19 05:32:35;;;;;;;;;;;21.00;99.90;;;;;;4590423;19;19927;-35
2022/07/19 05:34:06;;;;;;;;;;;21.10;99.90;;;;;;4593943;19;19923;-35
2022/07/19 05:35:38;;;;;;;;;;;21.10;99.90;;;;;;4593252;19;19919;-35
2022/07/19 05:37:09;;;;;;;;;;;21.20;99.90;;;;;;4593079;19;20336;-34
2022/07/19 05:38:40;;;;;;;;;;;21.20;99.90;;;;;;4592049;19;19914;-36
2022/07/19 05:40:11;;;;;;;;;;;21.20;99.90;;;;;;4592224;19;19914;-34
2022/07/19 05:41:43;;;;;;;;;;;21.30;99.90;;;;;;4590639;19;19978;-35
2022/07/19 05:43:15;;;;;;;;;;;21.30;99.90;;;;;;4591026;19;19930;-36
2022/07/19 05:44:46;;;;;;;;;;;21.30;99.90;;;;;;4591728;19;20325;-35
2022/07/19 05:46:17;;;;;;;;;;;21.30;99.90;;;;;;4590909;19;19923;-34
2022/07/19 05:47:48;;;;;;;;;;;21.30;99.90;;;;;;4591144;19;19915;-35
2022/07/19 05:49:20;;;;;;;;;;;21.40;99.90;;;;;;4591237;19;20014;-34
2022/07/19 05:50:51;;;;;;;;;;;21.40;99.90;;;;;;4591043;19;19935;-33
2022/07/19 05:52:22;;;;;;;;;;;21.40;99.90;;;;;;4590244;19;19927;-36
2022/07/19 05:53:53;;;;;;;;;;;21.40;99.90;;;;;;4590207;19;19970;-33
2022/07/19 05:55:25;;;;;;;;;;;21.40;99.90;;;;;;4589252;19;19939;-34
2022/07/19 05:56:56;;;;;;;;;;;21.40;99.90;;;;;;4588038;19;19994;-33
2022/07/19 05:58:27;;;;;;;;;;;21.40;99.90;;;;;;4587850;19;19926;-34
2022/07/19 05:59:57;;;;;;;;;;;21.40;99.90;;;;;;4588512;19;20340;-36
2022/07/19 06:01:29;;;;;;;;;;;21.40;99.90;;;;;;4591346;19;20404;-34
2022/07/19 06:02:59;;;;;;;;;;;21.40;99.90;;;;;;4590458;19;19948;-35
2022/07/19 06:04:30;;;;;;;;;;;21.40;99.90;;;;;;4590286;19;19915;-35
2022/07/19 06:06:01;;;;;;;;;;;21.40;99.90;;;;;;4590027;19;19915;-34
2022/07/19 06:07:33;;;;;;;;;;;21.40;99.90;;;;;;4589986;19;19927;-35
2022/07/19 06:09:04;;;;;;;;;;;21.40;99.90;;;;;;4588775;19;19915;-34
2022/07/19 06:10:36;;;;;;;;;;;21.40;99.90;;;;;;4588747;19;20401;-33
2022/07/19 06:12:07;;;;;;;;;;;21.40;99.90;;;;;;4588398;19;19919;-34
2022/07/19 06:13:38;;;;;;;;;;;21.40;99.90;;;;;;4588446;19;19935;-34
2022/07/19 06:15:10;;;;;;;;;;;21.50;99.90;;;;;;4590866;19;19922;-34
2022/07/19 06:16:40;;;;;;;;;;;21.40;99.90;;;;;;4590597;19;19974;-33
2022/07/19 06:18:14;;;;;;;;;;;21.50;99.90;;;;;;4589661;19;19922;-34
2022/07/19 06:19:46;;;;;;;;;;;21.50;99.90;;;;;;4591387;19;19946;-34
2022/07/19 06:21:18;;;;;;;;;;;21.50;99.90;;;;;;4591573;19;19949;-33
2022/07/19 06:22:49;;;;;;;;;;;21.50;99.90;;;;;;4589685;19;19915;-34
2022/07/19 06:24:20;;;;;;;;;;;21.50;99.90;;;;;;4590349;19;19932;-35
2022/07/19 06:25:51;;;;;;;;;;;21.50;99.90;;;;;;4589013;19;19941;-34
2022/07/19 06:27:22;;;;;;;;;;;21.50;99.90;;;;;;4589403;19;20276;-33
2022/07/19 06:28:54;;;;;;;;;;;21.50;99.90;;;;;;4590201;19;20377;-34
2022/07/19 06:30:24;;;;;;;;;;;21.50;99.90;;;;;;4592923;19;19914;-33
2022/07/19 06:31:56;;;;;;;;;;;21.50;99.90;;;;;;4592008;19;19922;-32
2022/07/19 06:33:26;;;;;;;;;;;21.50;99.90;;;;;;4589311;19;19943;-33
2022/07/19 06:34:57;;;;;;;;;;;21.50;99.90;;;;;;4589350;19;19915;-34
2022/07/19 06:36:28;;;;;;;;;;;21.50;99.90;;;;;;4589002;19;19914;-35
2022/07/19 06:38:00;;;;;;;;;;;21.50;99.90;;;;;;4588182;19;19918;-35
2022/07/19 06:39:31;;;;;;;;;;;21.50;99.90;;;;;;4587974;19;20315;-34
2022/07/19 06:41:02;;;;;;;;;;;21.50;99.90;;;;;;4587884;19;20424;-34
2022/07/19 06:42:33;;;;;;;;;;;21.50;99.90;;;;;;4587579;19;19926;-34
2022/07/19 06:44:05;;;;;;;;;;;21.50;99.90;;;;;;4590045;19;19953;-33
2022/07/19 06:45:36;;;;;;;;;;;21.50;99.90;;;;;;4589696;19;20355;-34
2022/07/19 06:47:07;;;;;;;;;;;21.50;99.90;;;;;;4590131;19;19966;-33
2022/07/19 06:48:38;;;;;;;;;;;21.50;99.90;;;;;;4589093;19;19952;-34
2022/07/19 06:50:09;;;;;;;;;;;21.60;99.90;;;;;;4588778;19;19925;-33
2022/07/19 06:51:40;;;;;;;;;;;21.60;99.90;;;;;;4589215;19;19978;-33
2022/07/19 06:53:11;;;;;;;;;;;21.60;99.90;;;;;;4587867;19;19915;-33
2022/07/19 06:54:42;;;;;;;;;;;21.60;99.90;;;;;;4587340;19;19915;-35
2022/07/19 06:56:13;;;;;;;;;;;21.60;99.90;;;;;;4586075;19;19922;-34
2022/07/19 06:57:44;;;;;;;;;;;21.70;99.90;;;;;;4589574;19;20377;-34
2022/07/19 06:59:15;;;;;;;;;;;21.70;99.90;;;;;;4587858;19;20001;-33
2022/07/19 07:00:48;;;;;;;;;;;21.70;99.90;;;;;;4588421;19;20418;-33
2022/07/19 07:02:19;;;;;;;;;;;21.60;99.90;;;;;;4587940;19;20350;-34
2022/07/19 07:03:50;;;;;;;;;;;21.70;99.90;;;;;;4588102;19;19915;-33
2022/07/19 07:05:21;;;;;;;;;;;21.70;99.90;;;;;;4587825;19;20368;-34
2022/07/19 07:06:52;;;;;;;;;;;21.70;99.90;;;;;;4589107;19;20321;-35
2022/07/19 07:08:24;;;;;;;;;;;21.80;99.90;;;;;;4592377;19;19926;-34
2022/07/19 07:09:54;;;;;;;;;;;21.90;99.90;;;;;;4591895;19;19922;-33
2022/07/19 07:11:25;;;;;;;;;;;21.90;99.90;;;;;;4591274;19;20244;-34
2022/07/19 07:12:56;;;;;;;;;;;21.90;99.90;;;;;;4589539;19;19915;-33
2022/07/19 07:14:27;;;;;;;;;;;21.90;99.90;;;;;;4589878;19;19919;-33
2022/07/19 07:15:58;;;;;;;;;;;22.00;99.90;;;;;;4589667;19;19918;-33
2022/07/19 07:17:29;;;;;;;;;;;22.10;99.90;;;;;;4589485;19;19918;-34
2022/07/19 07:19:00;;;;;;;;;;;22.20;99.90;;;;;;4588738;19;19921;-33
2022/07/19 07:20:34;;;;;;;;;;;22.20;99.90;;;;;;4589190;19;19926;-33
2022/07/19 07:22:04;;;;;;;;;;;22.20;99.90;;;;;;4589305;19;19970;-33
2022/07/19 07:23:36;;;;;;;;;;;22.20;99.90;;;;;;4591537;19;19911;-34
2022/07/19 07:25:07;;;;;;;;;;;22.40;99.90;;;;;;4591205;19;19918;-33
2022/07/19 07:26:38;;;;;;;;;;;22.40;99.90;;;;;;4590437;19;19918;-35
2022/07/19 07:28:09;;;;;;;;;;;22.40;99.90;;;;;;4590140;19;19918;-34
2022/07/19 07:29:40;;;;;;;;;;;22.50;99.90;;;;;;4589679;19;19938;-32
2022/07/19 07:31:11;;;;;;;;;;;20.60;99.90;;;;;;4589943;19;19923;-33
2022/07/19 07:32:42;;;;;;;6.17;4.30;;;19.30;99.90;;;;;;4587744;19;19914;-33
2022/07/19 07:34:13;;;;;;;;;;;19.10;99.90;;;;;;4589036;19;20033;-33
2022/07/19 07:35:44;;;;;;;;;;;19.00;99.90;;;;;;4593692;19;19922;-32
2022/07/19 07:37:15;;;;;;;;;;;19.10;99.90;;;;;;4595860;19;19956;-34
2022/07/19 07:38:46;;;;;;;;;;;19.10;99.90;;;;;;4594425;19;19922;-33
2022/07/19 07:40:17;;;;;;;;;;;19.20;99.90;;;;;;4593977;19;19922;-33
2022/07/19 07:41:48;;;;;;;;;;;19.40;99.90;;;;;;4594704;19;19915;-33
2022/07/19 07:43:19;;;;;;;;;;;19.40;99.90;;;;;;4595129;19;19923;-34
2022/07/19 07:44:51;;;;;;;;;;;19.50;99.90;;;;;;4592943;19;19915;-32
2022/07/19 07:46:22;;;;;;;;;;;19.60;99.90;;;;;;4593297;19;19948;-32
2022/07/19 07:47:53;;;;;;;;;;;19.60;99.90;;;;;;4593750;19;19958;-33
2022/07/19 07:49:24;;;;;;;;;;;19.60;99.90;;;;;;4593208;19;19918;-32
2022/07/19 07:50:55;;;;;;;;;;;19.60;99.90;;;;;;4595813;19;20253;-33
2022/07/19 07:52:26;;;;;;;;;;;19.70;99.90;;;;;;4595457;19;19922;-33
2022/07/19 07:54:00;;;;;;;;;;;19.70;99.90;;;;;;4595355;19;20372;-34
2022/07/19 07:55:37;;;;;;;;;;;19.80;99.90;;;;;;4593985;19;19956;-34
2022/07/19 07:57:08;;;;;;;;;;;19.80;99.90;;;;;;4592672;19;20364;-33
2022/07/19 07:58:39;;;;;;;;;;;19.90;99.90;;;;;;4592418;19;19926;-33
2022/07/19 08:00:12;;;;;;;;;;;20.00;99.90;;;;;;4593324;19;20317;-33
2022/07/19 08:01:44;;;;;;;;;;;20.10;99.90;;;;;;4593013;19;19914;-34
2022/07/19 08:03:16;;;;;;;;;;;20.20;99.90;;;;;;4595625;19;19921;-32
2022/07/19 08:04:47;;;;;;;;;;;20.10;99.90;;;;;;4595282;19;19978;-33
2022/07/19 08:06:18;;;;;;;;;;;20.20;99.90;;;;;;4594998;19;19934;-33
2022/07/19 08:07:49;;;;;;;;;;;20.30;99.90;;;;;;4594397;19;20369;-32
2022/07/19 08:09:20;;;;;;;;;;;20.30;99.90;;;;;;4594022;19;19940;-32
2022/07/19 08:10:51;;;;;;;;;;;20.30;99.90;;;;;;4593960;19;19911;-34
2022/07/19 08:12:23;;;;;;;;;;;20.30;99.90;;;;;;4593394;19;20002;-33
2022/07/19 08:13:54;;;;;;;;;;;20.30;99.90;;;;;;4592764;19;19919;-33
2022/07/19 08:15:25;;;;;;;;;;;20.30;99.90;;;;;;4592522;19;19959;-33
2022/07/19 08:16:56;;;;;;;;;;;20.40;99.90;;;;;;4591685;19;19918;-33
2022/07/19 08:18:27;;;;;;;;;;;20.40;99.90;;;;;;4593950;19;20282;-32
2022/07/19 08:19:59;;;;;;;;;;;20.40;99.90;;;;;;4594626;19;19915;-32
2022/07/19 08:21:30;;;;;;;;;;;20.40;99.90;;;;;;4594194;19;19948;-33
2022/07/19 08:23:01;;;;;;;;;;;20.40;99.90;;;;;;4593790;19;19922;-33
2022/07/19 08:24:32;;;;;;;;;;;20.50;99.90;;;;;;4591964;19;19978;-32
2022/07/19 08:26:03;;;;;;;;;;;20.50;99.90;;;;;;4592475;19;19911;-34
2022/07/19 08:27:34;;;;;;;;;;;20.50;99.90;;;;;;4592605;19;19922;-33
2022/07/19 08:29:05;;;;;;;;;;;20.50;99.90;;;;;;4592502;19;20269;-32
2022/07/19 08:30:36;;;;;;;;;;;20.60;99.90;;;;;;4592189;19;19926;-33
2022/07/19 08:32:07;;;;;;;;;;;20.60;99.90;;;;;;4594596;19;19922;-34
2022/07/19 08:33:39;;;;;;;;;;;20.60;99.90;;;;;;4594966;19;19922;-32
2022/07/19 08:35:10;;;;;;;;;;;20.60;99.90;;;;;;4594062;19;20002;-33
2022/07/19 08:36:41;;;;;;;;;;;20.60;99.90;;;;;;4592676;19;19936;-33
2022/07/19 08:38:12;;;;;;;;;;;20.60;99.90;;;;;;4592860;19;19918;-32
2022/07/19 08:39:43;;;;;;;;;;;20.70;99.90;;;;;;4593391;19;19930;-31
2022/07/19 08:41:15;;;;;;;;;;;20.50;99.90;;;;;;4592725;19;19922;-32
2022/07/19 08:42:46;;;;;;;;;;;20.60;99.90;;;;;;4592350;19;19922;-32
2022/07/19 08:44:17;;;;;;;;;;;20.70;99.90;;;;;;4591079;19;19915;-32
2022/07/19 08:45:48;;;;;;;;;;;20.70;99.90;;;;;;4593502;19;19945;-33
2022/07/19 08:47:20;;;;;;;;;;;20.70;99.90;;;;;;4593577;19;20279;-33
2022/07/19 08:48:51;;;;;;;;;;;20.70;99.90;;;;;;4594103;19;20401;-34
2022/07/19 08:50:21;;;;;;;;;;;20.80;99.90;;;;;;4592528;19;19918;-34
2022/07/19 08:51:53;;;;;;;;;;;20.80;99.90;;;;;;4592177;19;19915;-33